createdAt,value
2018-12-30T00:02:02.051Z,45.70
2018-12-30T00:04:58.050Z,45.80
2018-12-30T00:07:52.322Z,45.90
2018-12-30T00:10:46.604Z,45.80
2018-12-30T00:13:41.207Z,45.80
2018-12-30T00:16:36.824Z,45.90
2018-12-30T00:19:42.379Z,46.00
2018-12-30T00:22:31.115Z,46.00
2018-12-30T00:25:25.113Z,46.00
2018-12-30T00:28:18.991Z,45.90
2018-12-30T00:31:13.778Z,46.00
2018-12-30T00:34:08.164Z,46.00
2018-12-30T00:37:02.564Z,46.00
2018-12-30T00:40:04.477Z,46.00
2018-12-30T00:43:00.601Z,46.00
2018-12-30T00:45:54.530Z,46.00
2018-12-30T00:48:48.927Z,46.00
2018-12-30T00:51:43.397Z,46.00
2018-12-30T00:54:38.014Z,45.90
2018-12-30T00:57:32.002Z,46.10
2018-12-30T01:00:26.165Z,46.10
2018-12-30T01:03:20.553Z,46.10
2018-12-30T01:06:15.310Z,46.60
2018-12-30T01:09:12.375Z,46.10
2018-12-30T01:12:06.193Z,46.10
2018-12-30T01:15:02.719Z,46.20
2018-12-30T01:17:57.211Z,46.20
2018-12-30T01:20:57.614Z,46.30
2018-12-30T01:23:51.305Z,46.30
2018-12-30T01:26:47.959Z,46.30
2018-12-30T01:29:42.233Z,46.40
2018-12-30T01:32:36.625Z,46.40
2018-12-30T01:35:32.748Z,46.30
2018-12-30T01:38:26.752Z,46.30
2018-12-30T01:41:20.820Z,46.50
2018-12-30T01:44:19.099Z,46.30
2018-12-30T01:47:20.525Z,46.60
2018-12-30T01:50:11.448Z,46.30
2018-12-30T01:53:05.426Z,46.40
2018-12-30T01:56:00.333Z,46.40
2018-12-30T01:58:54.925Z,46.30
2018-12-30T02:01:50.641Z,46.50
2018-12-30T02:04:45.047Z,46.50
2018-12-30T02:07:43.630Z,46.20
2018-12-30T02:10:37.576Z,46.30
2018-12-30T02:13:31.624Z,46.40
2018-12-30T02:16:25.577Z,46.30
2018-12-30T02:19:19.546Z,46.50
2018-12-30T02:22:13.926Z,46.30
2018-12-30T02:25:08.419Z,46.40
2018-12-30T02:28:02.599Z,46.50
2018-12-30T02:30:56.789Z,46.50
2018-12-30T02:33:51.078Z,46.70
2018-12-30T02:36:45.279Z,46.80
2018-12-30T02:39:39.026Z,46.70
2018-12-30T02:42:33.550Z,46.80
2018-12-30T02:45:28.637Z,46.80
2018-12-30T02:48:22.919Z,46.90
2018-12-30T02:51:17.604Z,46.70
2018-12-30T02:54:12.200Z,46.60
2018-12-30T02:57:10.173Z,46.50
2018-12-30T03:00:07.745Z,46.50
2018-12-30T03:03:02.220Z,46.60
2018-12-30T03:06:04.207Z,46.60
2018-12-30T03:09:03.686Z,46.70
2018-12-30T03:12:01.489Z,46.30
2018-12-30T03:14:55.661Z,45.90
2018-12-30T03:17:49.412Z,46.20
2018-12-30T03:20:49.444Z,45.80
2018-12-30T03:23:48.248Z,45.90
2018-12-30T03:26:42.666Z,45.90
2018-12-30T03:29:45.409Z,45.90
2018-12-30T03:32:43.233Z,45.90
2018-12-30T03:35:34.834Z,45.80
2018-12-30T03:38:31.611Z,45.60
2018-12-30T03:41:30.086Z,45.60
2018-12-30T03:44:24.343Z,45.50
2018-12-30T03:47:24.661Z,45.40
2018-12-30T03:50:20.069Z,45.50
2018-12-30T03:53:15.162Z,45.20
2018-12-30T03:56:13.146Z,45.50
2018-12-30T03:59:08.750Z,45.50
2018-12-30T04:02:03.552Z,45.60
2018-12-30T04:04:58.171Z,45.40
2018-12-30T04:07:52.541Z,45.40
2018-12-30T04:10:47.019Z,45.20
2018-12-30T04:13:52.669Z,45.20
2018-12-30T04:16:47.187Z,45.10
2018-12-30T04:19:42.024Z,45.00
2018-12-30T04:22:38.050Z,45.20
2018-12-30T04:25:33.501Z,45.00
2018-12-30T04:28:30.972Z,44.80
2018-12-30T04:31:27.524Z,44.70
2018-12-30T04:34:22.510Z,44.70
2018-12-30T04:37:17.617Z,44.90
2018-12-30T04:40:12.331Z,44.80
2018-12-30T04:43:06.578Z,44.90
2018-12-30T04:46:01.704Z,45.00
2018-12-30T04:48:57.227Z,45.00
2018-12-30T04:51:53.584Z,45.00
2018-12-30T04:54:45.994Z,45.00
2018-12-30T04:57:40.286Z,45.00
2018-12-30T05:00:36.304Z,44.80
2018-12-30T05:03:34.792Z,44.50
2018-12-30T05:06:28.537Z,44.60
2018-12-30T05:09:25.241Z,44.80
2018-12-30T05:12:21.755Z,44.90
2018-12-30T05:15:17.263Z,44.70
2018-12-30T05:18:12.795Z,44.80
2018-12-30T05:21:12.790Z,45.70
2018-12-30T05:24:13.343Z,45.00
2018-12-30T05:27:10.789Z,45.00
2018-12-30T05:30:13.992Z,45.00
2018-12-30T05:33:08.801Z,44.80
2018-12-30T05:36:07.594Z,44.90
2018-12-30T05:39:03.420Z,44.60
2018-12-30T05:42:01.264Z,44.70
2018-12-30T05:44:56.482Z,44.90
2018-12-30T05:47:55.029Z,44.80
2018-12-30T05:50:49.296Z,44.70
2018-12-30T05:53:44.213Z,44.90
2018-12-30T05:56:45.230Z,44.70
2018-12-30T05:59:37.386Z,44.80
2018-12-30T06:02:41.921Z,44.50
2018-12-30T06:05:41.232Z,44.50
2018-12-30T06:08:32.463Z,44.40
2018-12-30T06:11:30.042Z,44.40
2018-12-30T06:14:28.590Z,44.70
2018-12-30T06:17:23.955Z,44.50
2018-12-30T06:20:18.518Z,44.60
2018-12-30T06:23:22.850Z,44.30
2018-12-30T06:26:08.392Z,44.40
2018-12-30T06:29:02.911Z,44.30
2018-12-30T06:31:57.929Z,44.20
2018-12-30T06:34:59.033Z,44.30
2018-12-30T06:37:50.907Z,44.30
2018-12-30T06:40:49.495Z,44.20
2018-12-30T06:43:43.347Z,44.20
2018-12-30T06:46:37.742Z,44.00
2018-12-30T06:49:32.351Z,44.00
2018-12-30T06:52:27.035Z,43.90
2018-12-30T06:55:24.736Z,44.10
2018-12-30T06:58:16.203Z,44.20
2018-12-30T07:01:10.811Z,42.20
2018-12-30T07:04:11.372Z,43.20
2018-12-30T07:07:09.713Z,43.60
2018-12-30T07:10:00.887Z,44.00
2018-12-30T07:12:54.918Z,43.90
2018-12-30T07:15:52.184Z,44.10
2018-12-30T07:18:46.265Z,44.20
2018-12-30T07:21:41.890Z,44.10
2018-12-30T07:24:36.470Z,43.90
2018-12-30T07:27:30.854Z,44.10
2018-12-30T07:30:25.060Z,44.10
2018-12-30T07:33:31.836Z,44.10
2018-12-30T07:36:26.133Z,44.00
2018-12-30T07:39:20.592Z,43.10
2018-12-30T07:42:15.290Z,44.00
2018-12-30T07:45:22.044Z,44.20
2018-12-30T07:48:17.394Z,43.80
2018-12-30T07:51:11.816Z,43.90
2018-12-30T07:54:08.941Z,43.90
2018-12-30T07:57:06.929Z,44.80
2018-12-30T08:00:24.314Z,43.80
2018-12-30T08:03:19.504Z,43.90
2018-12-30T08:06:14.142Z,44.10
2018-12-30T08:09:10.452Z,43.00
2018-12-30T08:12:05.355Z,43.90
2018-12-30T08:15:02.550Z,44.10
2018-12-30T08:17:57.322Z,44.20
2018-12-30T08:20:51.944Z,43.80
2018-12-30T08:23:47.218Z,43.90
2018-12-30T08:26:41.851Z,44.00
2018-12-30T08:29:35.919Z,44.00
2018-12-30T08:32:31.129Z,44.20
2018-12-30T08:35:26.005Z,44.00
2018-12-30T08:38:20.788Z,44.00
2018-12-30T08:41:15.947Z,43.90
2018-12-30T08:44:10.629Z,43.90
2018-12-30T08:47:08.258Z,43.90
2018-12-30T08:50:03.203Z,43.90
2018-12-30T08:52:58.101Z,43.60
2018-12-30T08:55:53.314Z,43.90
2018-12-30T08:58:51.553Z,43.60
2018-12-30T09:01:46.454Z,43.80
2018-12-30T09:04:57.768Z,43.70
2018-12-30T09:07:53.792Z,43.80
2018-12-30T09:10:40.183Z,43.90
2018-12-30T09:13:45.345Z,43.90
2018-12-30T09:16:42.762Z,43.90
2018-12-30T09:19:37.288Z,43.80
2018-12-30T09:22:35.174Z,43.80
2018-12-30T09:25:29.414Z,43.90
2018-12-30T09:28:23.695Z,43.90
2018-12-30T09:31:17.885Z,43.90
2018-12-30T09:34:12.460Z,44.10
2018-12-30T09:37:06.686Z,44.20
2018-12-30T09:40:09.341Z,44.00
2018-12-30T09:43:03.370Z,44.10
2018-12-30T09:45:57.289Z,44.10
2018-12-30T09:48:54.708Z,44.20
2018-12-30T09:51:48.749Z,44.20
2018-12-30T09:54:44.362Z,44.30
2018-12-30T09:57:38.823Z,44.30
2018-12-30T10:00:33.329Z,44.30
2018-12-30T10:03:27.833Z,44.40
2018-12-30T10:06:22.027Z,44.40
2018-12-30T10:09:16.707Z,44.40
2018-12-30T10:12:11.248Z,44.40
2018-12-30T10:15:09.992Z,44.40
2018-12-30T10:18:02.049Z,44.10
2018-12-30T10:20:56.515Z,44.00
2018-12-30T10:23:53.098Z,44.00
2018-12-30T10:26:46.015Z,44.10
2018-12-30T10:29:40.439Z,44.00
2018-12-30T10:32:57.634Z,44.00
2018-12-30T10:35:33.380Z,44.00
2018-12-30T10:38:27.978Z,44.20
2018-12-30T10:41:23.894Z,44.20
2018-12-30T10:44:18.374Z,44.20
2018-12-30T10:47:13.017Z,44.20
2018-12-30T10:50:15.072Z,44.20
2018-12-30T10:53:06.376Z,44.20
2018-12-30T10:56:05.949Z,44.20
2018-12-30T10:59:04.139Z,44.20
2018-12-30T11:02:04.208Z,44.20
2018-12-30T11:05:08.855Z,44.30
2018-12-30T11:07:54.958Z,44.30
2018-12-30T11:10:51.233Z,44.30
2018-12-30T11:13:46.753Z,44.40
2018-12-30T11:16:42.685Z,44.30
2018-12-30T11:19:45.782Z,44.40
2018-12-30T11:22:41.001Z,44.40
2018-12-30T11:25:41.544Z,44.40
2018-12-30T11:28:42.131Z,44.50
2018-12-30T11:31:40.914Z,44.50
2018-12-30T11:34:41.363Z,44.50
2018-12-30T11:37:35.023Z,44.50
2018-12-30T11:40:33.529Z,44.60
2018-12-30T11:43:31.214Z,44.70
2018-12-30T11:46:27.406Z,44.70
2018-12-30T11:49:22.004Z,44.70
2018-12-30T11:52:17.250Z,44.90
2018-12-30T11:55:14.882Z,44.80
2018-12-30T11:58:22.168Z,44.90
2018-12-30T12:01:21.173Z,44.90
2018-12-30T12:04:20.128Z,45.00
2018-12-30T12:07:15.033Z,45.10
2018-12-30T12:10:13.871Z,45.20
2018-12-30T12:13:11.268Z,45.10
2018-12-30T12:16:07.131Z,45.10
2018-12-30T12:19:04.451Z,45.20
2018-12-30T12:21:59.636Z,45.30
2018-12-30T12:24:57.496Z,45.30
2018-12-30T12:27:51.343Z,45.40
2018-12-30T12:30:47.169Z,45.40
2018-12-30T12:33:48.556Z,45.60
2018-12-30T12:36:43.941Z,45.60
2018-12-30T12:39:38.207Z,45.70
2018-12-30T12:42:33.218Z,45.80
2018-12-30T12:45:28.014Z,45.90
2018-12-30T12:48:22.817Z,45.90
2018-12-30T12:51:18.839Z,45.90
2018-12-30T12:54:13.231Z,45.80
2018-12-30T12:57:08.558Z,45.70
2018-12-30T13:00:03.136Z,45.90
2018-12-30T13:02:57.981Z,46.00
2018-12-30T13:05:55.697Z,45.90
2018-12-30T13:08:49.682Z,45.90
2018-12-30T13:11:43.183Z,46.00
2018-12-30T13:14:40.504Z,45.90
2018-12-30T13:17:34.988Z,46.00
2018-12-30T13:20:28.803Z,46.00
2018-12-30T13:23:23.580Z,46.10
2018-12-30T13:26:19.292Z,46.20
2018-12-30T13:29:13.668Z,46.20
2018-12-30T13:32:09.497Z,46.10
2018-12-30T13:35:04.588Z,46.10
2018-12-30T13:37:59.184Z,46.10
2018-12-30T13:40:57.365Z,46.10
2018-12-30T13:43:52.280Z,46.10
2018-12-30T13:46:48.642Z,46.00
2018-12-30T13:49:42.076Z,46.10
2018-12-30T13:53:11.684Z,46.10
2018-12-30T13:56:06.272Z,46.20
2018-12-30T13:59:00.878Z,46.10
2018-12-30T14:01:56.648Z,46.10
2018-12-30T14:04:51.151Z,46.10
2018-12-30T14:07:45.773Z,46.10
2018-12-30T14:10:39.648Z,46.20
2018-12-30T14:13:33.938Z,46.00
2018-12-30T14:16:28.725Z,46.10
2018-12-30T14:19:25.985Z,46.10
2018-12-30T14:22:20.390Z,46.10
2018-12-30T14:25:14.373Z,46.20
2018-12-30T14:28:08.442Z,46.20
2018-12-30T14:31:05.900Z,46.30
2018-12-30T14:33:59.987Z,46.90
2018-12-30T14:36:54.484Z,46.30
2018-12-30T14:39:48.865Z,46.10
2018-12-30T14:42:42.959Z,46.10
2018-12-30T14:45:36.727Z,45.80
2018-12-30T14:48:30.889Z,46.20
2018-12-30T14:51:25.215Z,46.30
2018-12-30T14:54:19.685Z,46.10
2018-12-30T14:57:14.075Z,46.20
2018-12-30T15:00:09.556Z,46.30
2018-12-30T15:03:03.759Z,46.30
2018-12-30T15:05:57.837Z,46.20
2018-12-30T15:08:53.571Z,46.30
2018-12-30T15:11:47.639Z,46.20
2018-12-30T15:14:41.734Z,46.10
2018-12-30T15:17:36.216Z,46.20
2018-12-30T15:20:30.420Z,46.30
2018-12-30T15:23:25.023Z,46.30
2018-12-30T15:26:18.864Z,46.30
2018-12-30T15:29:12.849Z,46.40
2018-12-30T15:32:07.238Z,46.30
2018-12-30T15:35:00.837Z,46.30
2018-12-30T15:37:55.250Z,46.50
2018-12-30T15:40:49.577Z,46.40
2018-12-30T15:43:44.686Z,46.40
2018-12-30T15:46:38.881Z,46.40
2018-12-30T15:49:33.154Z,46.50
2018-12-30T15:52:27.262Z,46.40
2018-12-30T15:55:21.646Z,46.40
2018-12-30T15:58:15.551Z,46.50
2018-12-30T16:01:10.624Z,46.40
2018-12-30T16:04:04.378Z,46.50
2018-12-30T16:07:02.628Z,46.40
2018-12-30T16:13:00.346Z,46.40
2018-12-30T16:15:54.851Z,46.40
2018-12-30T16:18:50.166Z,46.50
2018-12-30T16:21:44.852Z,47.00
2018-12-30T16:24:39.549Z,46.30
2018-12-30T16:27:33.394Z,46.40
2018-12-30T16:30:27.393Z,46.40
2018-12-30T16:33:24.558Z,46.40
2018-12-30T16:36:18.851Z,46.40
2018-12-30T16:39:14.659Z,46.50
2018-12-30T16:42:09.348Z,46.50
2018-12-30T16:45:07.777Z,46.50
2018-12-30T16:47:58.842Z,46.30
2018-12-30T16:50:53.685Z,46.40
2018-12-30T16:53:48.151Z,46.50
2018-12-30T16:56:43.039Z,46.60
2018-12-30T16:59:39.407Z,46.50
2018-12-30T17:02:38.978Z,46.60
2018-12-30T17:05:38.399Z,46.40
2018-12-30T17:08:32.893Z,46.50
2018-12-30T17:11:27.261Z,46.70
2018-12-30T17:14:25.986Z,46.60
2018-12-30T17:17:17.073Z,46.70
2018-12-30T17:20:12.082Z,46.70
2018-12-30T17:23:06.965Z,46.70
2018-12-30T17:26:00.942Z,46.80
2018-12-30T17:28:55.539Z,46.80
2018-12-30T17:31:50.132Z,46.80
2018-12-30T17:34:44.837Z,46.80
2018-12-30T17:37:41.982Z,46.90
2018-12-30T17:40:38.469Z,47.00
2018-12-30T17:43:29.324Z,47.00
2018-12-30T17:46:24.323Z,47.00
2018-12-30T17:49:18.717Z,46.90
2018-12-30T17:52:12.699Z,46.90
2018-12-30T17:55:10.155Z,47.00
2018-12-30T17:58:04.651Z,47.00
2018-12-30T18:00:58.933Z,47.10
2018-12-30T18:03:53.326Z,47.10
2018-12-30T18:06:47.605Z,47.20
2018-12-30T18:09:41.681Z,47.30
2018-12-30T18:12:37.259Z,47.30
2018-12-30T18:15:31.381Z,47.50
2018-12-30T18:18:28.540Z,47.70
2018-12-30T18:21:22.927Z,47.70
2018-12-30T18:24:17.311Z,47.40
2018-12-30T18:27:11.815Z,47.80
2018-12-30T18:30:06.105Z,48.10
2018-12-30T18:33:00.493Z,48.60
2018-12-30T18:35:56.308Z,48.20
2018-12-30T18:38:51.007Z,48.30
2018-12-30T18:41:46.114Z,48.50
2018-12-30T18:44:41.845Z,48.50
2018-12-30T18:47:36.216Z,48.50
2018-12-30T18:50:31.532Z,48.60
2018-12-30T18:53:25.914Z,48.60
2018-12-30T18:56:20.307Z,48.50
2018-12-30T18:59:14.195Z,48.60
2018-12-30T19:02:08.258Z,48.60
2018-12-30T19:05:02.659Z,48.60
2018-12-30T19:07:56.424Z,48.50
2018-12-30T19:10:50.707Z,48.50
2018-12-30T19:13:46.017Z,48.50
2018-12-30T19:16:40.608Z,48.30
2018-12-30T19:19:35.833Z,48.30
2018-12-30T19:22:29.275Z,48.30
2018-12-30T19:25:23.775Z,48.00
2018-12-30T19:28:19.486Z,48.00
2018-12-30T19:31:15.456Z,48.00
2018-12-30T19:34:09.437Z,47.80
2018-12-30T19:37:03.783Z,47.80
2018-12-30T19:39:58.515Z,47.80
2018-12-30T19:42:53.600Z,47.80
2018-12-30T19:45:47.987Z,47.90
2018-12-30T19:48:42.064Z,47.80
2018-12-30T19:51:36.141Z,47.60
2018-12-30T19:54:31.659Z,47.60
2018-12-30T19:57:25.802Z,47.80
2018-12-30T20:00:19.731Z,47.70
2018-12-30T20:03:16.745Z,47.60
2018-12-30T20:06:11.459Z,47.50
2018-12-30T20:09:06.589Z,47.60
2018-12-30T20:12:00.665Z,47.70
2018-12-30T20:14:54.645Z,47.50
2018-12-30T20:17:48.993Z,47.60
2018-12-30T20:20:43.911Z,47.50
2018-12-30T20:23:38.504Z,47.50
2018-12-30T20:26:33.511Z,47.40
2018-12-30T20:29:28.222Z,47.40
2018-12-30T20:32:22.773Z,47.50
2018-12-30T20:35:16.778Z,47.30
2018-12-30T20:38:11.067Z,47.20
2018-12-30T20:41:04.752Z,47.40
2018-12-30T20:43:59.531Z,47.40
2018-12-30T20:46:54.102Z,47.30
2018-12-30T20:49:48.450Z,47.30
2018-12-30T20:52:42.491Z,47.30
2018-12-30T20:55:36.983Z,47.30
2018-12-30T20:58:38.453Z,47.30
2018-12-30T21:01:32.826Z,47.30
2018-12-30T21:04:27.008Z,47.40
2018-12-30T21:07:20.785Z,47.30
2018-12-30T21:10:15.170Z,47.30
2018-12-30T21:13:09.481Z,47.40
2018-12-30T21:16:03.436Z,47.30
2018-12-30T21:18:57.724Z,47.30
2018-12-30T21:21:51.996Z,47.30
2018-12-30T21:24:46.827Z,47.30
2018-12-30T21:27:40.951Z,47.30
2018-12-30T21:30:35.291Z,47.40
2018-12-30T21:33:29.515Z,47.40
2018-12-30T21:36:24.156Z,47.30
2018-12-30T21:39:19.669Z,47.30
2018-12-30T21:42:14.058Z,47.20
2018-12-30T21:45:08.319Z,47.30
2018-12-30T21:48:02.593Z,47.30
2018-12-30T21:50:56.352Z,47.30
2018-12-30T21:53:50.283Z,47.30
2018-12-30T21:56:43.957Z,47.10
2018-12-30T21:59:38.460Z,47.30
2018-12-30T22:02:32.525Z,47.20
2018-12-30T22:05:26.817Z,47.10
2018-12-30T22:08:23.760Z,47.20
2018-12-30T22:11:19.167Z,47.20
2018-12-30T22:14:13.355Z,47.20
2018-12-30T22:17:06.974Z,47.20
2018-12-30T22:20:00.789Z,47.20
2018-12-30T22:22:55.033Z,47.30
2018-12-30T22:25:48.639Z,47.30
2018-12-30T22:28:42.450Z,47.30
2018-12-30T22:31:36.415Z,47.30
2018-12-30T22:34:30.592Z,47.40
2018-12-30T22:37:24.894Z,47.80
2018-12-30T22:40:18.858Z,47.40
2018-12-30T22:43:14.606Z,47.50
2018-12-30T22:46:08.349Z,47.50
2018-12-30T22:49:04.612Z,47.50
2018-12-30T22:52:02.251Z,47.50
2018-12-30T22:54:57.712Z,47.50
2018-12-30T22:57:51.648Z,47.40
2018-12-30T23:01:13.788Z,47.60
2018-12-30T23:04:08.383Z,47.40
2018-12-30T23:07:02.669Z,47.40
2018-12-30T23:09:56.739Z,47.40
2018-12-30T23:12:50.567Z,47.40
2018-12-30T23:15:44.422Z,47.30
2018-12-30T23:18:38.675Z,47.60
2018-12-30T23:21:32.475Z,47.40
2018-12-30T23:24:26.949Z,47.30
2018-12-30T23:27:21.333Z,47.40
2018-12-30T23:30:16.355Z,47.30
2018-12-30T23:33:10.765Z,47.30
2018-12-30T23:36:07.465Z,47.30
2018-12-30T23:39:01.246Z,47.20
2018-12-30T23:41:56.351Z,47.00
2018-12-30T23:44:51.077Z,47.30
2018-12-30T23:47:46.174Z,47.20
2018-12-30T23:50:40.285Z,47.20
2018-12-30T23:53:34.839Z,47.30
2018-12-30T23:56:28.817Z,47.20
2018-12-30T23:59:24.315Z,47.10
